createdAt,value
2018-03-24T00:02:08.156Z,1.86
2018-03-24T00:04:35.759Z,1.83
2018-03-24T00:07:03.368Z,1.81
2018-03-24T00:09:31.010Z,1.81
2018-03-24T00:11:58.684Z,1.87
2018-03-24T00:14:26.442Z,1.81
2018-03-24T00:16:54.095Z,1.82
2018-03-24T00:19:22.137Z,1.72
2018-03-24T00:21:49.850Z,1.67
2018-03-24T00:24:17.506Z,1.71
2018-03-24T00:26:45.083Z,1.72
2018-03-24T00:29:12.692Z,1.70
2018-03-24T00:31:40.393Z,1.67
2018-03-24T00:34:07.990Z,1.67
2018-03-24T00:36:35.648Z,1.72
2018-03-24T00:39:03.355Z,1.69
2018-03-24T00:41:32.572Z,1.67
2018-03-24T00:44:00.642Z,1.74
2018-03-24T00:46:29.049Z,1.69
2018-03-24T00:48:56.674Z,1.73
2018-03-24T00:51:24.361Z,1.66
2018-03-24T00:53:52.119Z,1.63
2018-03-24T00:56:20.396Z,1.65
2018-03-24T00:58:48.062Z,1.60
2018-03-24T01:01:15.736Z,1.59
2018-03-24T01:03:43.380Z,1.65
2018-03-24T01:06:11.056Z,1.69
2018-03-24T01:08:38.682Z,1.68
2018-03-24T01:11:06.614Z,1.66
2018-03-24T01:13:34.439Z,1.66
2018-03-24T01:16:02.020Z,1.60
2018-03-24T01:18:29.607Z,1.54
2018-03-24T01:20:57.447Z,1.43
2018-03-24T01:23:25.028Z,1.44
2018-03-24T01:25:53.211Z,1.52
2018-03-24T01:28:20.917Z,1.58
2018-03-24T01:30:49.247Z,1.55
2018-03-24T01:33:16.881Z,1.50
2018-03-24T01:35:44.648Z,1.52
2018-03-24T01:38:12.305Z,1.52
2018-03-24T01:40:40.040Z,1.52
2018-03-24T01:43:07.959Z,1.46
2018-03-24T01:45:36.190Z,1.47
2018-03-24T01:48:03.897Z,1.48
2018-03-24T01:50:31.533Z,1.51
2018-03-24T01:52:59.153Z,1.51
2018-03-24T01:55:27.494Z,1.42
2018-03-24T01:57:55.068Z,1.36
2018-03-24T02:00:22.713Z,1.35
2018-03-24T02:02:50.342Z,1.34
2018-03-24T02:05:17.946Z,1.30
2018-03-24T02:07:45.570Z,1.30
2018-03-24T02:10:13.214Z,1.33
2018-03-24T02:12:40.808Z,1.35
2018-03-24T02:15:08.465Z,1.33
2018-03-24T02:17:36.045Z,1.33
2018-03-24T02:20:03.911Z,1.36
2018-03-24T02:22:33.601Z,1.30
2018-03-24T02:25:01.351Z,1.18
2018-03-24T02:27:28.937Z,1.16
2018-03-24T02:29:56.585Z,1.20
2018-03-24T02:32:24.184Z,1.28
2018-03-24T02:34:52.287Z,1.29
2018-03-24T02:37:19.983Z,1.21
2018-03-24T02:39:47.656Z,1.16
2018-03-24T02:42:15.323Z,1.14
2018-03-24T02:44:42.983Z,1.15
2018-03-24T02:47:10.625Z,1.27
2018-03-24T02:49:38.516Z,1.24
2018-03-24T02:52:06.270Z,1.17
2018-03-24T02:54:33.874Z,1.17
2018-03-24T02:57:01.464Z,1.26
2018-03-24T02:59:29.122Z,1.27
2018-03-24T03:01:56.743Z,1.14
2018-03-24T03:04:24.660Z,1.15
2018-03-24T03:06:52.265Z,1.17
2018-03-24T03:09:19.925Z,1.20
2018-03-24T03:11:47.520Z,1.15
2018-03-24T03:14:15.152Z,1.11
2018-03-24T03:16:42.738Z,1.13
2018-03-24T03:19:10.418Z,1.17
2018-03-24T03:21:49.904Z,1.16
2018-03-24T03:24:19.555Z,1.16
2018-03-24T03:26:47.319Z,1.13
2018-03-24T03:29:14.927Z,1.12
2018-03-24T03:31:42.703Z,1.10
2018-03-24T03:34:10.370Z,1.06
2018-03-24T03:36:37.973Z,1.02
2018-03-24T03:39:05.695Z,1.01
2018-03-24T03:41:33.288Z,1.11
2018-03-24T03:44:00.884Z,0.93
2018-03-24T03:46:29.380Z,0.89
2018-03-24T03:48:56.954Z,0.92
2018-03-24T03:51:24.579Z,0.89
2018-03-24T03:53:52.233Z,0.88
2018-03-24T03:56:19.809Z,0.84
2018-03-24T03:58:47.458Z,0.88
2018-03-24T04:01:15.065Z,0.88
2018-03-24T04:03:42.724Z,0.90
2018-03-24T04:06:10.356Z,0.82
2018-03-24T04:08:37.994Z,0.77
2018-03-24T04:11:05.650Z,0.80
2018-03-24T04:13:33.231Z,0.82
2018-03-24T04:16:01.022Z,0.78
2018-03-24T04:18:28.637Z,0.75
2018-03-24T04:20:56.286Z,0.79
2018-03-24T04:23:23.927Z,0.78
2018-03-24T04:25:51.580Z,0.66
2018-03-24T04:28:19.284Z,0.61
2018-03-24T04:30:46.882Z,0.55
2018-03-24T04:33:14.537Z,0.48
2018-03-24T04:35:42.131Z,0.42
2018-03-24T04:38:09.788Z,0.34
2018-03-24T04:40:37.388Z,0.35
2018-03-24T04:43:05.370Z,0.39
2018-03-24T04:45:33.062Z,0.29
2018-03-24T04:48:00.646Z,0.34
2018-03-24T04:50:28.706Z,0.33
2018-03-24T04:52:56.363Z,0.28
2018-03-24T04:55:24.016Z,0.28
2018-03-24T04:57:51.664Z,0.31
2018-03-24T05:00:19.295Z,0.34
2018-03-24T05:02:47.740Z,0.28
2018-03-24T05:05:15.330Z,0.27
2018-03-24T05:07:43.028Z,0.28
2018-03-24T05:10:10.833Z,0.28
2018-03-24T05:12:38.468Z,0.32
2018-03-24T05:15:06.171Z,0.35
2018-03-24T05:17:33.822Z,0.18
2018-03-24T05:20:01.632Z,0.19
2018-03-24T05:22:29.220Z,0.31
2018-03-24T05:24:56.861Z,0.39
2018-03-24T05:27:24.618Z,0.46
2018-03-24T05:29:52.215Z,0.56
2018-03-24T05:32:19.859Z,0.74
2018-03-24T05:34:47.506Z,0.75
2018-03-24T05:37:15.333Z,0.73
2018-03-24T05:39:42.985Z,0.72
2018-03-24T05:42:10.585Z,0.78
2018-03-24T05:44:38.391Z,0.80
2018-03-24T05:47:06.072Z,0.79
2018-03-24T05:49:34.289Z,0.88
2018-03-24T05:52:02.217Z,0.85
2018-03-24T05:54:30.058Z,0.66
2018-03-24T05:56:57.848Z,0.61
2018-03-24T05:59:25.544Z,0.84
2018-03-24T06:01:53.491Z,0.86
2018-03-24T06:04:21.154Z,0.95
2018-03-24T06:06:48.799Z,1.09
2018-03-24T06:09:16.403Z,1.26
2018-03-24T06:11:44.089Z,1.48
2018-03-24T06:14:11.791Z,1.28
2018-03-24T06:16:39.454Z,1.23
2018-03-24T06:19:07.079Z,1.21
2018-03-24T06:21:34.734Z,1.26
2018-03-24T06:24:02.398Z,1.41
2018-03-24T06:26:30.230Z,1.36
2018-03-24T06:28:58.140Z,0.81
2018-03-24T06:31:28.262Z,1.12
2018-03-24T06:33:56.241Z,1.06
2018-03-24T06:36:27.858Z,1.25
2018-03-24T06:38:55.527Z,1.47
2018-03-24T06:41:23.173Z,1.59
2018-03-24T06:43:50.822Z,2.10
2018-03-24T06:46:18.553Z,2.61
2018-03-24T06:48:46.216Z,3.04
2018-03-24T06:51:13.927Z,3.19
2018-03-24T06:53:41.618Z,3.57
2018-03-24T06:56:09.266Z,3.65
2018-03-24T06:58:37.706Z,3.86
2018-03-24T07:01:05.343Z,4.11
2018-03-24T07:03:33.029Z,4.27
2018-03-24T07:06:01.273Z,4.34
2018-03-24T07:08:29.871Z,4.15
2018-03-24T07:10:57.757Z,3.71
2018-03-24T07:13:25.625Z,4.18
2018-03-24T07:15:53.472Z,4.05
2018-03-24T07:18:21.061Z,4.34
2018-03-24T07:20:48.797Z,5.02
2018-03-24T07:23:16.549Z,4.91
2018-03-24T07:25:45.559Z,4.69
2018-03-24T07:28:13.445Z,4.28
2018-03-24T07:30:41.406Z,4.25
2018-03-24T07:33:09.109Z,3.80
2018-03-24T07:35:37.314Z,3.88
2018-03-24T07:38:05.119Z,4.72
2018-03-24T07:40:33.432Z,5.35
2018-03-24T07:43:01.049Z,5.66
2018-03-24T07:45:28.805Z,5.39
2018-03-24T07:47:56.522Z,5.64
2018-03-24T07:50:24.355Z,5.40
2018-03-24T07:52:52.364Z,6.47
2018-03-24T07:55:20.192Z,5.89
2018-03-24T07:57:48.472Z,6.12
2018-03-24T08:00:16.664Z,5.97
2018-03-24T08:02:44.444Z,6.03
2018-03-24T08:05:12.377Z,6.68
2018-03-24T08:07:40.223Z,5.74
2018-03-24T08:10:08.096Z,6.21
2018-03-24T08:12:36.711Z,6.33
2018-03-24T08:15:04.324Z,6.83
2018-03-24T08:17:32.606Z,7.83
2018-03-24T08:20:01.413Z,7.94
2018-03-24T08:22:29.694Z,6.62
2018-03-24T08:24:57.663Z,6.88
2018-03-24T08:27:25.336Z,7.36
2018-03-24T08:29:53.422Z,6.66
2018-03-24T08:32:21.040Z,7.35
2018-03-24T08:34:48.933Z,7.45
2018-03-24T08:37:16.602Z,7.46
2018-03-24T08:39:44.433Z,7.90
2018-03-24T08:42:13.565Z,7.86
2018-03-24T08:44:41.457Z,8.36
2018-03-24T08:47:09.929Z,8.77
2018-03-24T08:49:37.593Z,8.66
2018-03-24T08:52:05.910Z,9.08
2018-03-24T08:54:34.429Z,7.99
2018-03-24T08:57:02.402Z,7.89
2018-03-24T08:59:30.014Z,7.56
2018-03-24T09:01:57.705Z,8.25
2018-03-24T09:04:25.548Z,8.92
2018-03-24T09:06:53.332Z,8.61
2018-03-24T09:09:21.800Z,8.35
2018-03-24T09:11:49.470Z,8.09
2018-03-24T09:14:17.295Z,8.63
2018-03-24T09:16:44.990Z,9.07
2018-03-24T09:19:12.654Z,8.98
2018-03-24T09:21:41.375Z,9.54
2018-03-24T09:24:09.072Z,8.95
2018-03-24T09:26:36.752Z,9.06
2018-03-24T09:29:05.476Z,9.35
2018-03-24T09:31:33.561Z,9.64
2018-03-24T09:34:02.058Z,9.06
2018-03-24T09:36:32.289Z,9.76
2018-03-24T09:39:00.747Z,9.31
2018-03-24T09:41:28.963Z,9.37
2018-03-24T09:43:56.736Z,10.21
2018-03-24T09:46:24.434Z,9.99
2018-03-24T09:48:52.115Z,9.18
2018-03-24T09:51:19.852Z,9.61
2018-03-24T09:53:47.564Z,10.06
2018-03-24T09:56:15.249Z,9.72
2018-03-24T09:58:42.958Z,9.26
2018-03-24T10:01:10.795Z,9.60
2018-03-24T10:03:39.152Z,10.21
2018-03-24T10:06:07.067Z,9.36
2018-03-24T10:08:34.707Z,9.45
2018-03-24T10:11:02.391Z,9.49
2018-03-24T10:13:30.165Z,10.01
2018-03-24T10:15:57.829Z,9.75
2018-03-24T10:18:25.673Z,9.51
2018-03-24T10:20:56.888Z,9.89
2018-03-24T10:23:33.324Z,9.76
2018-03-24T10:26:01.183Z,10.59
2018-03-24T10:28:29.381Z,10.15
2018-03-24T10:30:57.106Z,9.86
2018-03-24T10:33:25.568Z,10.72
2018-03-24T10:35:53.440Z,10.55
2018-03-24T10:38:21.426Z,11.13
2018-03-24T10:40:49.271Z,10.27
2018-03-24T10:43:22.437Z,10.47
2018-03-24T10:45:50.151Z,10.43
2018-03-24T10:48:17.795Z,10.86
2018-03-24T10:50:45.477Z,10.31
2018-03-24T10:53:13.085Z,10.76
2018-03-24T10:55:40.754Z,10.20
2018-03-24T10:58:08.361Z,11.00
2018-03-24T11:00:36.086Z,11.30
2018-03-24T11:03:03.901Z,10.80
2018-03-24T11:05:31.764Z,10.18
2018-03-24T11:07:59.833Z,10.90
2018-03-24T11:10:27.466Z,11.05
2018-03-24T11:12:55.152Z,10.99
2018-03-24T11:15:22.805Z,10.86
2018-03-24T11:17:50.415Z,10.46
2018-03-24T11:20:18.124Z,9.82
2018-03-24T11:22:47.077Z,11.19
2018-03-24T11:25:14.799Z,11.36
2018-03-24T11:27:42.671Z,11.09
2018-03-24T11:30:11.246Z,11.82
2018-03-24T11:32:38.929Z,11.59
2018-03-24T11:35:07.185Z,10.91
2018-03-24T11:37:36.283Z,11.47
2018-03-24T11:40:04.558Z,11.20
2018-03-24T11:42:32.526Z,11.40
2018-03-24T11:45:00.147Z,11.90
2018-03-24T11:47:30.160Z,12.06
2018-03-24T11:49:57.875Z,11.82
2018-03-24T11:52:25.731Z,11.49
2018-03-24T11:54:53.422Z,11.42
2018-03-24T11:57:21.122Z,11.70
2018-03-24T11:59:48.780Z,11.82
2018-03-24T12:02:16.439Z,11.69
2018-03-24T12:04:44.987Z,11.86
2018-03-24T12:07:13.790Z,11.72
2018-03-24T12:09:41.391Z,12.44
2018-03-24T12:12:09.093Z,12.38
2018-03-24T12:14:36.761Z,11.99
2018-03-24T12:17:04.925Z,12.34
2018-03-24T12:19:32.870Z,12.11
2018-03-24T12:22:00.486Z,13.03
2018-03-24T12:24:28.321Z,12.33
2018-03-24T12:26:56.390Z,12.40
2018-03-24T12:29:23.987Z,11.67
2018-03-24T12:31:51.712Z,11.96
2018-03-24T12:34:20.048Z,12.60
2018-03-24T12:36:48.469Z,11.63
2018-03-24T12:39:16.191Z,12.13
2018-03-24T12:41:43.966Z,12.32
2018-03-24T12:44:11.632Z,12.05
2018-03-24T12:46:39.343Z,11.80
2018-03-24T12:49:06.941Z,12.45
2018-03-24T12:51:34.744Z,12.48
2018-03-24T12:54:02.596Z,12.51
2018-03-24T12:56:30.286Z,12.46
2018-03-24T12:58:58.049Z,12.77
2018-03-24T13:01:25.651Z,12.27
2018-03-24T13:03:53.462Z,12.23
2018-03-24T13:06:21.647Z,12.16
2018-03-24T13:08:49.572Z,11.73
2018-03-24T13:11:17.794Z,11.90
2018-03-24T13:13:45.548Z,12.73
2018-03-24T13:16:13.207Z,12.93
2018-03-24T13:18:42.551Z,11.34
2018-03-24T13:21:11.289Z,12.41
2018-03-24T13:23:39.067Z,12.23
2018-03-24T13:26:06.944Z,12.48
2018-03-24T13:28:35.222Z,12.53
2018-03-24T13:31:02.913Z,12.26
2018-03-24T13:33:31.348Z,12.42
2018-03-24T13:35:59.167Z,11.87
2018-03-24T13:38:26.900Z,12.62
2018-03-24T13:40:54.662Z,12.03
2018-03-24T13:43:22.321Z,12.19
2018-03-24T13:45:51.334Z,12.43
2018-03-24T13:48:18.982Z,12.54
2018-03-24T13:50:46.638Z,12.59
2018-03-24T13:53:14.503Z,12.31
2018-03-24T13:55:42.841Z,12.04
2018-03-24T13:58:11.514Z,12.27
2018-03-24T14:00:39.231Z,11.84
2018-03-24T14:03:07.872Z,11.56
2018-03-24T14:05:35.493Z,11.66
2018-03-24T14:08:03.364Z,12.01
2018-03-24T14:10:31.880Z,11.95
2018-03-24T14:13:00.362Z,12.02
2018-03-24T14:15:28.148Z,12.18
2018-03-24T14:17:56.031Z,11.76
2018-03-24T14:20:23.725Z,12.04
2018-03-24T14:22:51.907Z,12.12
2018-03-24T14:25:19.541Z,11.93
2018-03-24T14:27:48.094Z,12.09
2018-03-24T14:30:15.734Z,12.02
2018-03-24T14:32:43.394Z,11.70
2018-03-24T14:35:11.073Z,11.88
2018-03-24T14:37:38.684Z,11.97
2018-03-24T14:40:06.362Z,11.79
2018-03-24T14:42:34.203Z,11.73
2018-03-24T14:45:01.867Z,11.92
2018-03-24T14:47:29.472Z,11.29
2018-03-24T14:49:57.935Z,11.57
2018-03-24T14:52:25.630Z,11.54
2018-03-24T14:54:53.260Z,11.54
2018-03-24T14:57:20.931Z,11.50
2018-03-24T14:59:48.588Z,11.20
2018-03-24T15:02:16.179Z,11.14
2018-03-24T15:04:43.831Z,11.20
2018-03-24T15:07:11.490Z,11.10
2018-03-24T15:09:39.247Z,11.22
2018-03-24T15:12:06.914Z,11.45
2018-03-24T15:14:34.604Z,11.39
2018-03-24T15:17:02.312Z,10.93
2018-03-24T15:19:30.017Z,10.78
2018-03-24T15:21:57.656Z,10.68
2018-03-24T15:24:25.410Z,10.95
2018-03-24T15:26:53.051Z,10.57
2018-03-24T15:29:32.493Z,10.56
2018-03-24T15:32:11.803Z,10.86
2018-03-24T15:34:51.296Z,10.59
2018-03-24T15:37:18.975Z,10.85
2018-03-24T15:39:46.773Z,10.59
2018-03-24T15:42:15.659Z,10.33
2018-03-24T15:44:43.406Z,9.87
2018-03-24T15:47:11.203Z,9.82
2018-03-24T15:49:38.871Z,9.94
2018-03-24T15:52:07.159Z,9.84
2018-03-24T15:54:35.124Z,9.88
2018-03-24T15:57:02.906Z,9.82
2018-03-24T15:59:30.776Z,9.69
2018-03-24T16:01:58.576Z,9.70
2018-03-24T16:04:26.590Z,9.68
2018-03-24T16:06:54.282Z,9.40
2018-03-24T16:09:22.842Z,9.29
2018-03-24T16:11:50.544Z,9.27
2018-03-24T16:14:18.198Z,9.29
2018-03-24T16:16:46.014Z,9.15
2018-03-24T16:19:14.071Z,9.12
2018-03-24T16:21:42.168Z,9.14
2018-03-24T16:24:10.694Z,8.92
2018-03-24T16:26:38.622Z,8.93
2018-03-24T16:29:06.792Z,8.92
2018-03-24T16:31:36.709Z,8.90
2018-03-24T16:34:04.360Z,8.94
2018-03-24T16:36:32.390Z,8.87
2018-03-24T16:39:00.721Z,8.64
2018-03-24T16:41:28.589Z,8.67
2018-03-24T16:43:56.491Z,8.34
2018-03-24T16:46:24.411Z,8.33
2018-03-24T16:48:52.496Z,8.29
2018-03-24T16:51:20.496Z,8.31
2018-03-24T16:53:48.263Z,8.28
2018-03-24T16:56:16.278Z,8.33
2018-03-24T16:58:44.152Z,7.98
2018-03-24T17:01:11.887Z,7.87
2018-03-24T17:03:39.901Z,7.71
2018-03-24T17:06:07.898Z,7.71
2018-03-24T17:08:36.563Z,7.76
2018-03-24T17:11:04.742Z,7.76
2018-03-24T17:13:33.948Z,7.39
2018-03-24T17:16:02.090Z,7.02
2018-03-24T17:18:29.747Z,7.06
2018-03-24T17:20:57.435Z,6.46
2018-03-24T17:23:25.070Z,6.28
2018-03-24T17:25:52.965Z,5.96
2018-03-24T17:28:20.817Z,6.07
2018-03-24T17:30:48.486Z,5.87
2018-03-24T17:33:16.640Z,5.69
2018-03-24T17:35:44.622Z,5.80
2018-03-24T17:38:12.500Z,5.73
2018-03-24T17:40:40.165Z,5.49
2018-03-24T17:43:08.178Z,5.31
2018-03-24T17:45:36.118Z,5.19
2018-03-24T17:48:04.039Z,5.09
2018-03-24T17:50:32.008Z,5.15
2018-03-24T17:52:59.869Z,5.17
2018-03-24T17:55:27.541Z,4.99
2018-03-24T17:57:55.997Z,4.98
2018-03-24T18:00:25.597Z,4.99
2018-03-24T18:02:53.418Z,4.92
2018-03-24T18:05:21.352Z,4.60
2018-03-24T18:07:49.982Z,4.57
2018-03-24T18:10:17.899Z,4.44
2018-03-24T18:12:46.725Z,4.22
2018-03-24T18:15:16.663Z,4.17
2018-03-24T18:17:44.521Z,4.23
2018-03-24T18:20:12.560Z,4.16
2018-03-24T18:22:40.651Z,4.05
2018-03-24T18:25:08.706Z,4.07
2018-03-24T18:27:37.449Z,4.04
2018-03-24T18:30:06.025Z,3.80
2018-03-24T18:32:35.116Z,3.72
2018-03-24T18:35:04.860Z,3.76
2018-03-24T18:37:32.860Z,3.78
2018-03-24T18:40:00.846Z,3.70
2018-03-24T18:42:28.949Z,3.91
2018-03-24T18:44:57.457Z,3.91
2018-03-24T18:47:25.159Z,3.82
2018-03-24T18:49:53.658Z,3.78
2018-03-24T18:52:22.035Z,3.72
2018-03-24T18:54:50.096Z,3.46
2018-03-24T18:57:20.565Z,3.49
2018-03-24T18:59:49.119Z,3.38
2018-03-24T19:02:17.861Z,3.61
2018-03-24T19:04:45.960Z,3.46
2018-03-24T19:07:15.422Z,3.54
2018-03-24T19:09:43.733Z,3.34
2018-03-24T19:12:11.935Z,3.50
2018-03-24T19:14:40.364Z,3.28
2018-03-24T19:17:09.398Z,3.43
2018-03-24T19:19:37.962Z,3.43
2018-03-24T19:22:06.889Z,3.39
2018-03-24T19:24:35.945Z,3.21
2018-03-24T19:27:04.386Z,3.02
2018-03-24T19:29:32.917Z,2.90
2018-03-24T19:32:02.633Z,2.83
2018-03-24T19:34:31.276Z,2.72
2018-03-24T19:36:59.243Z,2.79
2018-03-24T19:39:27.777Z,2.55
2018-03-24T19:41:56.036Z,2.51
2018-03-24T19:44:24.042Z,2.43
2018-03-24T19:46:53.691Z,2.31
2018-03-24T19:49:21.976Z,2.34
2018-03-24T19:51:49.988Z,2.52
2018-03-24T19:54:18.810Z,2.27
2018-03-24T19:56:47.017Z,2.31
2018-03-24T19:59:15.491Z,2.22
2018-03-24T20:01:43.679Z,2.47
2018-03-24T20:04:12.395Z,2.30
2018-03-24T20:06:40.863Z,2.36
2018-03-24T20:09:08.816Z,2.21
2018-03-24T20:11:36.862Z,2.69
2018-03-24T20:14:04.930Z,2.33
2018-03-24T20:16:33.792Z,2.06
2018-03-24T20:19:02.140Z,1.98
2018-03-24T20:21:30.807Z,2.04
2018-03-24T20:23:58.834Z,2.15
2018-03-24T20:26:28.152Z,2.29
2018-03-24T20:28:56.169Z,2.21
2018-03-24T20:31:25.516Z,2.14
2018-03-24T20:33:53.908Z,2.08
2018-03-24T20:36:22.453Z,2.21
2018-03-24T20:38:50.310Z,2.09
2018-03-24T20:41:18.191Z,2.03
2018-03-24T20:43:45.920Z,1.99
2018-03-24T20:46:13.731Z,2.10
2018-03-24T20:48:41.576Z,1.86
2018-03-24T20:51:09.523Z,1.86
2018-03-24T20:53:37.527Z,1.89
2018-03-24T20:56:05.705Z,1.88
2018-03-24T20:58:33.560Z,1.79
2018-03-24T21:01:02.265Z,1.69
2018-03-24T21:03:30.117Z,1.80
2018-03-24T21:05:58.050Z,1.73
2018-03-24T21:08:26.657Z,1.70
2018-03-24T21:10:54.525Z,1.72
2018-03-24T21:13:22.414Z,1.49
2018-03-24T21:15:50.466Z,1.57
2018-03-24T21:18:18.234Z,1.62
2018-03-24T21:20:46.146Z,1.48
2018-03-24T21:23:14.041Z,1.41
2018-03-24T21:25:42.770Z,1.55
2018-03-24T21:28:11.237Z,1.70
2018-03-24T21:30:39.095Z,1.67
2018-03-24T21:33:06.986Z,1.72
2018-03-24T21:35:34.760Z,1.78
2018-03-24T21:38:02.624Z,1.40
2018-03-24T21:40:30.280Z,1.33
2018-03-24T21:42:57.941Z,1.20
2018-03-24T21:45:25.609Z,1.23
2018-03-24T21:47:53.872Z,1.38
2018-03-24T21:50:21.543Z,1.34
2018-03-24T21:52:49.200Z,1.29
2018-03-24T21:55:16.963Z,1.33
2018-03-24T21:57:44.680Z,1.42
2018-03-24T22:00:12.492Z,1.34
2018-03-24T22:02:40.832Z,1.26
2018-03-24T22:05:08.828Z,0.99
2018-03-24T22:07:36.821Z,0.92
2018-03-24T22:10:04.781Z,1.02
2018-03-24T22:12:32.667Z,1.19
2018-03-24T22:15:01.350Z,0.98
2018-03-24T22:17:29.414Z,1.02
2018-03-24T22:19:57.297Z,0.93
2018-03-24T22:22:25.298Z,0.99
2018-03-24T22:24:53.222Z,0.97
2018-03-24T22:27:21.888Z,0.92
2018-03-24T22:29:49.977Z,0.95
2018-03-24T22:32:19.386Z,0.97
2018-03-24T22:34:47.212Z,0.96
2018-03-24T22:37:15.670Z,0.86
2018-03-24T22:39:43.555Z,0.81
2018-03-24T22:42:12.185Z,0.90
2018-03-24T22:44:39.843Z,0.86
2018-03-24T22:47:07.519Z,0.81
2018-03-24T22:49:37.976Z,0.72
2018-03-24T22:52:05.699Z,0.75
2018-03-24T22:54:33.349Z,0.92
2018-03-24T22:57:01.224Z,0.91
2018-03-24T22:59:29.086Z,0.84
2018-03-24T23:01:56.817Z,0.78
2018-03-24T23:04:24.622Z,0.69
2018-03-24T23:06:52.627Z,0.70
2018-03-24T23:09:20.280Z,0.64
2018-03-24T23:11:47.962Z,0.74
2018-03-24T23:14:16.016Z,0.72
2018-03-24T23:16:43.640Z,0.62
2018-03-24T23:19:11.279Z,0.69
2018-03-24T23:21:38.977Z,0.74
2018-03-24T23:24:06.877Z,0.73
2018-03-24T23:26:34.738Z,0.63
2018-03-24T23:29:02.580Z,0.64
2018-03-24T23:31:30.441Z,0.66
2018-03-24T23:33:58.037Z,0.70
2018-03-24T23:36:25.681Z,0.82
2018-03-24T23:38:53.436Z,0.67
2018-03-24T23:41:21.306Z,0.65
2018-03-24T23:43:48.888Z,0.66
2018-03-24T23:46:16.519Z,0.63
2018-03-24T23:48:44.274Z,0.58
2018-03-24T23:51:11.927Z,0.63
2018-03-24T23:53:39.528Z,0.57
2018-03-24T23:56:07.277Z,0.49
2018-03-24T23:58:34.868Z,0.48
